createdAt,value
2018-12-25T00:02:11.221Z,2.50
2018-12-25T00:04:42.240Z,2.40
2018-12-25T00:07:12.946Z,2.50
2018-12-25T00:09:44.343Z,2.60
2018-12-25T00:12:15.044Z,2.50
2018-12-25T00:14:46.464Z,2.50
2018-12-25T00:17:17.130Z,2.60
2018-12-25T00:19:47.914Z,2.60
2018-12-25T00:22:18.657Z,2.60
2018-12-25T00:24:49.298Z,2.60
2018-12-25T00:27:19.937Z,2.60
2018-12-25T00:29:50.600Z,2.70
2018-12-25T00:32:21.324Z,2.70
2018-12-25T00:34:52.000Z,2.70
2018-12-25T00:37:22.718Z,2.70
2018-12-25T00:39:53.391Z,2.70
2018-12-25T00:42:24.078Z,2.70
2018-12-25T00:44:54.834Z,2.70
2018-12-25T00:47:25.502Z,2.70
2018-12-25T00:49:56.188Z,2.60
2018-12-25T00:52:26.929Z,2.70
2018-12-25T00:54:57.618Z,2.70
2018-12-25T00:57:28.322Z,2.70
2018-12-25T00:59:59.478Z,2.70
2018-12-25T01:02:30.099Z,2.80
2018-12-25T01:05:00.802Z,2.80
2018-12-25T01:07:31.631Z,2.70
2018-12-25T01:10:02.268Z,2.80
2018-12-25T01:12:33.032Z,2.80
2018-12-25T01:15:04.438Z,2.80
2018-12-25T01:17:35.096Z,2.90
2018-12-25T01:20:05.965Z,2.80
2018-12-25T01:22:36.648Z,2.90
2018-12-25T01:25:07.400Z,2.90
2018-12-25T01:27:38.641Z,3.00
2018-12-25T01:30:09.571Z,3.10
2018-12-25T01:32:40.268Z,3.00
2018-12-25T01:35:10.991Z,3.10
2018-12-25T01:37:41.635Z,3.10
2018-12-25T01:40:13.704Z,3.20
2018-12-25T01:42:44.861Z,3.10
2018-12-25T01:45:15.532Z,3.10
2018-12-25T01:47:46.395Z,3.10
2018-12-25T01:50:17.062Z,3.20
2018-12-25T01:52:48.162Z,3.20
2018-12-25T01:55:18.891Z,3.30
2018-12-25T01:57:49.842Z,3.40
2018-12-25T02:00:20.521Z,3.30
2018-12-25T02:02:51.666Z,3.30
2018-12-25T02:05:22.434Z,3.30
2018-12-25T02:07:53.079Z,3.30
2018-12-25T02:10:23.851Z,3.40
2018-12-25T02:12:54.541Z,3.40
2018-12-25T02:15:25.177Z,3.40
2018-12-25T02:17:55.988Z,3.30
2018-12-25T02:20:26.785Z,3.40
2018-12-25T02:22:57.476Z,3.50
2018-12-25T02:25:28.196Z,3.50
2018-12-25T02:27:58.941Z,3.50
2018-12-25T02:30:29.675Z,3.50
2018-12-25T02:33:00.777Z,3.40
2018-12-25T02:35:31.497Z,3.40
2018-12-25T02:38:02.145Z,3.40
2018-12-25T02:40:32.987Z,3.50
2018-12-25T02:43:03.594Z,3.50
2018-12-25T02:45:34.266Z,3.50
2018-12-25T02:48:05.756Z,3.60
2018-12-25T02:50:36.410Z,3.60
2018-12-25T02:53:07.057Z,3.50
2018-12-25T02:55:37.719Z,3.50
2018-12-25T02:58:08.379Z,3.50
2018-12-25T03:00:39.999Z,3.60
2018-12-25T03:03:10.883Z,3.60
2018-12-25T03:05:41.655Z,3.60
2018-12-25T03:08:12.344Z,3.60
2018-12-25T03:10:42.994Z,3.60
2018-12-25T03:13:13.659Z,3.60
2018-12-25T03:15:44.888Z,3.60
2018-12-25T03:18:15.643Z,3.70
2018-12-25T03:20:46.282Z,3.60
2018-12-25T03:23:16.979Z,3.70
2018-12-25T03:25:47.636Z,3.70
2018-12-25T03:28:18.376Z,3.80
2018-12-25T03:30:49.056Z,3.70
2018-12-25T03:33:19.743Z,3.80
2018-12-25T03:35:50.388Z,3.80
2018-12-25T03:38:21.052Z,3.80
2018-12-25T03:40:51.942Z,3.80
2018-12-25T03:43:22.721Z,3.70
2018-12-25T03:45:53.867Z,3.90
2018-12-25T03:48:24.563Z,3.90
2018-12-25T03:50:55.687Z,3.90
2018-12-25T03:53:26.457Z,3.80
2018-12-25T03:55:57.306Z,3.90
2018-12-25T03:58:28.003Z,3.90
2018-12-25T04:00:58.804Z,3.90
2018-12-25T04:03:29.429Z,3.80
2018-12-25T04:06:01.565Z,3.80
2018-12-25T04:08:32.510Z,3.80
2018-12-25T04:11:03.184Z,3.80
2018-12-25T04:13:33.876Z,3.90
2018-12-25T04:16:04.573Z,3.80
2018-12-25T04:18:35.280Z,3.90
2018-12-25T04:21:06.438Z,3.90
2018-12-25T04:23:37.438Z,3.90
2018-12-25T04:26:08.098Z,3.90
2018-12-25T04:28:38.904Z,3.90
2018-12-25T04:31:10.185Z,3.90
2018-12-25T04:33:41.533Z,3.90
2018-12-25T04:36:12.225Z,3.90
2018-12-25T04:38:43.031Z,3.90
2018-12-25T04:41:13.639Z,3.90
2018-12-25T04:43:44.415Z,3.90
2018-12-25T04:46:15.169Z,3.90
2018-12-25T04:48:46.038Z,4.00
2018-12-25T04:51:16.752Z,4.00
2018-12-25T04:53:47.507Z,4.00
2018-12-25T04:56:18.226Z,4.00
2018-12-25T04:58:49.737Z,4.00
2018-12-25T05:01:20.858Z,4.10
2018-12-25T05:03:51.584Z,4.10
2018-12-25T05:06:23.771Z,4.10
2018-12-25T05:08:54.418Z,4.20
2018-12-25T05:11:26.387Z,4.20
2018-12-25T05:13:57.805Z,4.10
2018-12-25T05:16:28.630Z,4.20
2018-12-25T05:18:59.677Z,4.20
2018-12-25T05:21:30.368Z,4.20
2018-12-25T05:24:01.504Z,4.20
2018-12-25T05:26:32.195Z,4.20
2018-12-25T05:29:02.921Z,4.20
2018-12-25T05:31:33.563Z,4.30
2018-12-25T05:34:04.227Z,4.20
2018-12-25T05:36:34.998Z,4.30
2018-12-25T05:39:08.311Z,4.30
2018-12-25T05:41:38.932Z,4.30
2018-12-25T05:44:09.688Z,4.30
2018-12-25T05:46:40.336Z,4.40
2018-12-25T05:49:11.012Z,4.40
2018-12-25T05:51:43.033Z,4.40
2018-12-25T05:54:13.694Z,4.40
2018-12-25T05:56:44.370Z,4.40
2018-12-25T05:59:15.036Z,4.40
2018-12-25T06:01:45.648Z,4.40
2018-12-25T06:04:16.325Z,4.50
2018-12-25T06:06:47.021Z,4.50
2018-12-25T06:09:17.678Z,4.50
2018-12-25T06:11:48.405Z,4.50
2018-12-25T06:14:19.112Z,4.50
2018-12-25T06:16:49.800Z,4.50
2018-12-25T06:19:20.475Z,4.40
2018-12-25T06:21:51.181Z,4.50
2018-12-25T06:24:21.793Z,4.60
2018-12-25T06:26:52.464Z,4.50
2018-12-25T06:29:23.225Z,4.60
2018-12-25T06:31:53.931Z,4.60
2018-12-25T06:34:24.586Z,4.60
2018-12-25T06:36:55.240Z,4.60
2018-12-25T06:39:25.888Z,4.60
2018-12-25T06:41:56.539Z,4.70
2018-12-25T06:44:27.224Z,4.70
2018-12-25T06:46:58.031Z,4.70
2018-12-25T06:49:28.693Z,4.60
2018-12-25T06:51:59.931Z,4.60
2018-12-25T06:54:30.664Z,4.60
2018-12-25T06:57:01.424Z,4.70
2018-12-25T06:59:32.121Z,4.70
2018-12-25T07:02:02.814Z,4.60
2018-12-25T07:04:33.455Z,4.60
2018-12-25T07:07:04.116Z,4.60
2018-12-25T07:09:34.820Z,4.60
2018-12-25T07:12:05.498Z,4.70
2018-12-25T07:14:36.179Z,4.70
2018-12-25T07:17:06.957Z,4.70
2018-12-25T07:19:37.769Z,4.60
2018-12-25T07:22:08.467Z,4.50
2018-12-25T07:24:40.387Z,4.50
2018-12-25T07:27:11.115Z,4.50
2018-12-25T07:29:41.909Z,4.50
2018-12-25T07:32:12.645Z,4.50
2018-12-25T07:34:43.398Z,4.50
2018-12-25T07:37:14.056Z,4.50
2018-12-25T07:39:44.889Z,4.50
2018-12-25T07:42:15.563Z,4.50
2018-12-25T07:44:46.320Z,4.50
2018-12-25T07:47:17.129Z,4.50
2018-12-25T07:49:49.014Z,4.40
2018-12-25T07:52:19.716Z,4.40
2018-12-25T07:54:50.529Z,4.40
2018-12-25T07:57:21.184Z,4.40
2018-12-25T07:59:51.995Z,4.40
2018-12-25T08:02:23.611Z,4.30
2018-12-25T08:04:54.338Z,4.30
2018-12-25T08:07:24.969Z,4.30
2018-12-25T08:09:56.036Z,4.30
2018-12-25T08:12:27.145Z,4.30
2018-12-25T08:14:58.114Z,4.30
2018-12-25T08:17:28.849Z,4.30
2018-12-25T08:19:59.802Z,4.30
2018-12-25T08:22:31.225Z,4.20
2018-12-25T08:25:02.679Z,4.30
2018-12-25T08:27:33.652Z,4.30
2018-12-25T08:30:06.997Z,4.40
2018-12-25T08:32:38.579Z,4.30
2018-12-25T08:35:09.552Z,4.30
2018-12-25T08:37:40.304Z,4.30
2018-12-25T08:40:13.275Z,4.30
2018-12-25T08:42:44.394Z,4.20
2018-12-25T08:45:15.092Z,4.30
2018-12-25T08:47:45.833Z,4.30
2018-12-25T08:50:16.759Z,4.30
2018-12-25T08:52:47.451Z,4.30
2018-12-25T08:55:18.176Z,4.30
2018-12-25T08:57:48.883Z,4.30
2018-12-25T09:00:19.891Z,4.30
2018-12-25T09:02:50.556Z,4.30
2018-12-25T09:05:22.697Z,4.30
2018-12-25T09:07:55.799Z,4.30
2018-12-25T09:10:26.466Z,4.30
2018-12-25T09:13:00.832Z,4.30
2018-12-25T09:15:31.471Z,4.30
2018-12-25T09:18:02.216Z,4.20
2018-12-25T09:20:32.891Z,4.30
2018-12-25T09:23:03.837Z,4.40
2018-12-25T09:25:34.586Z,4.40
2018-12-25T09:28:08.186Z,4.40
2018-12-25T09:30:39.991Z,4.40
2018-12-25T09:33:10.767Z,4.40
2018-12-25T09:35:41.611Z,4.50
2018-12-25T09:38:12.289Z,4.60
2018-12-25T09:40:43.578Z,4.60
2018-12-25T09:43:14.392Z,4.60
2018-12-25T09:45:46.657Z,4.60
2018-12-25T09:48:21.897Z,4.60
2018-12-25T09:50:52.601Z,4.60
2018-12-25T09:53:23.361Z,4.60
2018-12-25T09:55:54.049Z,4.60
2018-12-25T09:58:28.579Z,4.60
2018-12-25T10:01:00.229Z,4.60
2018-12-25T10:03:30.873Z,4.70
2018-12-25T10:06:01.512Z,4.70
2018-12-25T10:08:32.352Z,4.70
2018-12-25T10:11:04.673Z,4.70
2018-12-25T10:13:35.426Z,4.80
2018-12-25T10:16:09.517Z,4.70
2018-12-25T10:18:41.582Z,4.80
2018-12-25T10:21:12.409Z,4.80
2018-12-25T10:23:43.211Z,4.90
2018-12-25T10:26:13.968Z,4.90
2018-12-25T10:28:44.757Z,4.90
2018-12-25T10:31:16.369Z,5.00
2018-12-25T10:33:49.092Z,5.00
2018-12-25T10:36:19.810Z,5.00
2018-12-25T10:38:50.585Z,5.00
2018-12-25T10:41:21.334Z,5.00
2018-12-25T10:43:52.326Z,5.00
2018-12-25T10:46:24.154Z,5.00
2018-12-25T10:48:56.323Z,5.00
2018-12-25T10:51:27.258Z,5.00
2018-12-25T10:53:57.919Z,5.10
2018-12-25T10:56:28.717Z,5.00
2018-12-25T10:58:59.539Z,5.10
2018-12-25T11:01:35.376Z,5.10
2018-12-25T11:04:07.650Z,5.20
2018-12-25T11:06:39.506Z,5.10
2018-12-25T11:09:11.136Z,5.20
2018-12-25T11:11:45.151Z,5.30
2018-12-25T11:14:16.672Z,5.30
2018-12-25T11:16:47.393Z,5.30
2018-12-25T11:19:18.100Z,5.30
2018-12-25T11:21:48.784Z,5.30
2018-12-25T11:24:19.526Z,5.40
2018-12-25T11:26:50.207Z,5.50
2018-12-25T11:29:21.078Z,5.50
2018-12-25T11:31:51.831Z,5.60
2018-12-25T11:34:22.515Z,5.60
2018-12-25T11:36:53.169Z,5.70
2018-12-25T11:39:23.819Z,5.70
2018-12-25T11:41:54.536Z,5.80
2018-12-25T11:44:25.266Z,5.80
2018-12-25T11:46:55.892Z,5.80
2018-12-25T11:49:26.616Z,5.80
2018-12-25T11:51:57.298Z,5.80
2018-12-25T11:54:28.026Z,5.80
2018-12-25T11:56:58.716Z,5.90
2018-12-25T11:59:29.429Z,5.90
2018-12-25T12:02:00.132Z,6.00
2018-12-25T12:04:30.812Z,6.00
2018-12-25T12:07:02.204Z,6.00
2018-12-25T12:09:33.903Z,6.00
2018-12-25T12:12:04.601Z,6.10
2018-12-25T12:14:35.247Z,6.00
2018-12-25T12:17:05.938Z,6.00
2018-12-25T12:19:36.586Z,6.00
2018-12-25T12:22:07.350Z,6.10
2018-12-25T12:24:38.503Z,6.00
2018-12-25T12:27:09.586Z,6.10
2018-12-25T12:29:40.289Z,6.00
2018-12-25T12:32:10.973Z,6.10
2018-12-25T12:34:41.688Z,6.20
2018-12-25T12:37:15.565Z,6.20
2018-12-25T12:39:46.205Z,6.10
2018-12-25T12:42:17.501Z,6.10
2018-12-25T12:44:48.222Z,6.00
2018-12-25T12:47:18.959Z,6.00
2018-12-25T12:49:49.653Z,6.10
2018-12-25T12:52:20.392Z,6.10
2018-12-25T12:54:51.070Z,6.20
2018-12-25T12:57:21.833Z,6.20
2018-12-25T12:59:52.861Z,6.30
2018-12-25T13:02:23.682Z,6.30
2018-12-25T13:04:54.432Z,6.30
2018-12-25T13:07:25.144Z,6.30
2018-12-25T13:09:55.919Z,6.30
2018-12-25T13:12:26.686Z,6.30
2018-12-25T13:14:57.348Z,6.20
2018-12-25T13:17:28.060Z,6.20
2018-12-25T13:19:58.736Z,6.20
2018-12-25T13:22:29.439Z,6.20
2018-12-25T13:25:02.857Z,6.20
2018-12-25T13:27:33.647Z,6.10
2018-12-25T13:30:04.442Z,6.20
2018-12-25T13:32:35.261Z,6.20
2018-12-25T13:35:05.923Z,6.10
2018-12-25T13:37:36.599Z,6.10
2018-12-25T13:40:07.742Z,6.10
2018-12-25T13:42:38.905Z,6.00
2018-12-25T13:45:09.696Z,6.10
2018-12-25T13:47:40.381Z,6.00
2018-12-25T13:50:11.690Z,6.00
2018-12-25T13:52:42.384Z,6.00
2018-12-25T13:55:13.109Z,6.00
2018-12-25T13:57:44.609Z,6.00
2018-12-25T14:00:15.315Z,6.00
2018-12-25T14:02:46.071Z,6.00
2018-12-25T14:05:16.792Z,5.90
2018-12-25T14:07:47.471Z,5.90
2018-12-25T14:10:18.327Z,5.90
2018-12-25T14:12:50.791Z,5.90
2018-12-25T14:15:21.931Z,5.90
2018-12-25T14:17:52.580Z,5.80
2018-12-25T14:20:23.662Z,5.80
2018-12-25T14:22:54.344Z,5.80
2018-12-25T14:25:26.343Z,5.80
2018-12-25T14:27:57.035Z,5.80
2018-12-25T14:30:27.757Z,5.80
2018-12-25T14:32:58.520Z,5.80
2018-12-25T14:35:29.226Z,5.70
2018-12-25T14:37:59.902Z,5.70
2018-12-25T14:40:49.643Z,5.70
2018-12-25T14:43:20.711Z,5.70
2018-12-25T14:45:51.343Z,5.60
2018-12-25T14:48:22.448Z,5.60
2018-12-25T14:50:53.448Z,5.70
2018-12-25T14:53:25.153Z,5.70
2018-12-25T14:56:02.750Z,5.70
2018-12-25T14:58:33.498Z,5.70
2018-12-25T15:01:10.110Z,5.80
2018-12-25T15:03:45.376Z,5.80
2018-12-25T15:06:17.870Z,5.70
2018-12-25T15:08:48.600Z,5.70
2018-12-25T15:11:19.596Z,5.60
2018-12-25T15:13:50.278Z,5.60
2018-12-25T15:16:21.371Z,5.60
2018-12-25T15:18:52.156Z,5.60
2018-12-25T15:21:23.078Z,5.70
2018-12-25T15:23:53.812Z,5.60
2018-12-25T15:26:25.009Z,5.60
2018-12-25T15:28:55.713Z,5.60
2018-12-25T15:31:26.706Z,5.60
2018-12-25T15:33:57.677Z,5.60
2018-12-25T15:36:28.958Z,5.50
2018-12-25T15:38:59.832Z,5.40
2018-12-25T15:41:30.462Z,5.40
2018-12-25T15:44:01.131Z,5.40
2018-12-25T15:46:31.949Z,5.30
2018-12-25T15:49:03.451Z,5.30
2018-12-25T15:51:34.402Z,5.20
2018-12-25T15:54:05.166Z,5.20
2018-12-25T15:56:35.871Z,5.10
2018-12-25T15:59:06.646Z,5.10
2018-12-25T16:01:37.568Z,5.10
2018-12-25T16:04:08.599Z,5.10
2018-12-25T16:06:40.250Z,5.10
2018-12-25T16:09:10.951Z,5.10
2018-12-25T16:11:41.764Z,5.10
2018-12-25T16:14:12.486Z,5.20
2018-12-25T16:16:43.193Z,5.20
2018-12-25T16:19:13.867Z,5.10
2018-12-25T16:21:45.030Z,5.10
2018-12-25T16:24:15.977Z,5.10
2018-12-25T16:26:46.663Z,5.10
2018-12-25T16:29:17.339Z,5.00
2018-12-25T16:31:48.245Z,5.10
2018-12-25T16:34:19.114Z,5.10
2018-12-25T16:36:49.998Z,5.00
2018-12-25T16:39:21.829Z,5.10
2018-12-25T16:41:52.664Z,5.10
2018-12-25T16:44:23.453Z,5.10
2018-12-25T16:46:54.237Z,5.10
2018-12-25T16:49:25.048Z,5.00
2018-12-25T16:51:56.309Z,5.00
2018-12-25T16:54:27.166Z,5.00
2018-12-25T16:56:57.809Z,5.10
2018-12-25T16:59:28.505Z,5.10
2018-12-25T17:01:59.176Z,5.20
2018-12-25T17:04:29.936Z,5.20
2018-12-25T17:07:01.236Z,5.20
2018-12-25T17:09:32.239Z,5.20
2018-12-25T17:12:07.268Z,5.20
2018-12-25T17:14:38.422Z,5.20
2018-12-25T17:17:09.049Z,5.20
2018-12-25T17:19:39.750Z,5.20
2018-12-25T17:22:10.452Z,5.20
2018-12-25T17:24:41.993Z,5.20
2018-12-25T17:27:12.638Z,5.20
2018-12-25T17:29:43.254Z,5.20
2018-12-25T17:32:14.030Z,5.20
2018-12-25T17:34:44.800Z,5.20
2018-12-25T17:37:15.625Z,5.20
2018-12-25T17:39:46.489Z,5.20
2018-12-25T17:42:17.270Z,5.20
2018-12-25T17:44:47.984Z,5.10
2018-12-25T17:47:18.751Z,5.20
2018-12-25T17:49:49.403Z,5.20
2018-12-25T17:52:20.142Z,5.30
2018-12-25T17:54:50.848Z,5.30
2018-12-25T17:57:21.514Z,5.30
2018-12-25T17:59:52.225Z,5.20
2018-12-25T18:02:22.995Z,5.20
2018-12-25T18:04:53.694Z,5.20
2018-12-25T18:07:24.416Z,5.20
2018-12-25T18:09:55.096Z,5.20
2018-12-25T18:12:25.742Z,5.30
2018-12-25T18:14:56.480Z,5.20
2018-12-25T18:17:27.205Z,5.20
2018-12-25T18:19:58.148Z,5.30
2018-12-25T18:22:28.935Z,5.30
2018-12-25T18:24:59.557Z,5.30
2018-12-25T18:27:30.313Z,5.30
2018-12-25T18:30:01.016Z,5.20
2018-12-25T18:32:31.857Z,5.30
2018-12-25T18:35:02.501Z,5.30
2018-12-25T18:37:33.511Z,5.30
2018-12-25T18:40:05.239Z,5.20
2018-12-25T18:42:35.903Z,5.20
2018-12-25T18:45:06.954Z,5.20
2018-12-25T18:47:37.958Z,5.20
2018-12-25T18:50:10.120Z,5.30
2018-12-25T18:52:41.710Z,5.30
2018-12-25T18:55:12.423Z,5.30
2018-12-25T18:57:44.315Z,5.30
2018-12-25T19:00:15.031Z,5.30
2018-12-25T19:02:45.863Z,5.30
2018-12-25T19:05:17.791Z,5.30
2018-12-25T19:07:48.654Z,5.40
2018-12-25T19:10:19.331Z,5.40
2018-12-25T19:12:50.446Z,5.40
2018-12-25T19:15:23.801Z,5.40
2018-12-25T19:17:57.082Z,5.30
2018-12-25T19:20:28.003Z,5.30
2018-12-25T19:22:58.793Z,5.30
2018-12-25T19:25:29.543Z,5.30
2018-12-25T19:28:00.746Z,5.30
2018-12-25T19:30:34.475Z,5.30
2018-12-25T19:33:05.141Z,5.20
2018-12-25T19:35:36.221Z,5.30
2018-12-25T19:38:07.038Z,5.30
2018-12-25T19:40:37.843Z,5.40
2018-12-25T19:43:09.084Z,5.30
2018-12-25T19:45:40.463Z,5.30
2018-12-25T19:48:11.300Z,5.30
2018-12-25T19:50:42.387Z,5.30
2018-12-25T19:53:13.106Z,5.30
2018-12-25T19:55:44.121Z,5.40
2018-12-25T19:58:15.148Z,5.30
2018-12-25T20:00:47.728Z,5.30
2018-12-25T20:03:59.990Z,5.40
2018-12-25T20:07:14.673Z,5.40
2018-12-25T20:10:23.463Z,5.40
2018-12-25T20:14:28.689Z,5.30
2018-12-25T20:18:00.930Z,5.40
2018-12-25T20:21:10.166Z,5.30
2018-12-25T20:24:37.146Z,5.30
2018-12-25T20:28:15.070Z,5.30
2018-12-25T20:31:47.829Z,5.40
2018-12-25T20:35:09.035Z,5.30
2018-12-25T20:39:05.260Z,5.40
2018-12-25T20:42:49.510Z,5.30
2018-12-25T20:46:11.192Z,5.30
2018-12-25T20:49:46.600Z,5.40
2018-12-25T20:53:18.353Z,5.40
2018-12-25T20:57:09.985Z,5.40
2018-12-25T21:00:40.725Z,5.30
2018-12-25T21:04:11.901Z,5.40
2018-12-25T21:07:36.407Z,5.40
2018-12-25T21:11:40.923Z,5.40
2018-12-25T21:15:09.068Z,5.40
2018-12-25T21:19:10.128Z,5.40
2018-12-25T21:22:47.827Z,5.40
2018-12-25T21:26:13.254Z,5.40
2018-12-25T21:28:44.217Z,5.40
2018-12-25T21:31:15.301Z,5.30
2018-12-25T21:33:46.722Z,5.40
2018-12-25T21:36:18.234Z,5.40
2018-12-25T21:38:49.590Z,5.40
2018-12-25T21:41:21.570Z,5.40
2018-12-25T21:43:54.245Z,5.40
2018-12-25T21:46:26.177Z,5.50
2018-12-25T21:48:57.094Z,5.40
2018-12-25T21:51:29.314Z,5.50
2018-12-25T21:54:00.073Z,5.50
2018-12-25T21:56:32.086Z,5.40
2018-12-25T21:59:03.169Z,5.50
2018-12-25T22:01:33.885Z,5.40
2018-12-25T22:04:04.921Z,5.40
2018-12-25T22:06:35.707Z,5.40
2018-12-25T22:09:08.816Z,5.40
2018-12-25T22:11:39.669Z,5.50
2018-12-25T22:14:10.474Z,5.40
2018-12-25T22:16:41.315Z,5.40
2018-12-25T22:19:12.290Z,5.50
2018-12-25T22:21:44.383Z,5.40
2018-12-25T22:24:15.086Z,5.40
2018-12-25T22:26:45.795Z,5.40
2018-12-25T22:29:17.600Z,5.40
2018-12-25T22:31:49.189Z,5.40
2018-12-25T22:34:20.766Z,5.40
2018-12-25T22:36:52.217Z,5.50
2018-12-25T22:39:22.915Z,5.50
2018-12-25T22:41:53.670Z,5.50
2018-12-25T22:44:24.318Z,5.50
2018-12-25T22:46:56.132Z,5.50
2018-12-25T22:49:26.806Z,5.40
2018-12-25T22:51:57.597Z,5.40
2018-12-25T22:54:28.658Z,5.50
2018-12-25T22:56:59.306Z,5.50
2018-12-25T22:59:30.036Z,5.50
2018-12-25T23:02:00.693Z,5.50
2018-12-25T23:04:31.500Z,5.50
2018-12-25T23:07:02.547Z,5.40
2018-12-25T23:09:33.285Z,5.40
2018-12-25T23:12:05.861Z,5.40
2018-12-25T23:14:37.671Z,5.50
2018-12-25T23:17:08.393Z,5.40
2018-12-25T23:19:39.073Z,5.50
2018-12-25T23:22:11.124Z,5.50
2018-12-25T23:24:42.852Z,5.40
2018-12-25T23:27:13.505Z,5.50
2018-12-25T23:29:44.768Z,5.40
2018-12-25T23:32:15.549Z,5.40
2018-12-25T23:34:46.256Z,5.40
2018-12-25T23:37:17.006Z,5.40
2018-12-25T23:39:47.638Z,5.40
2018-12-25T23:42:18.438Z,5.40
2018-12-25T23:44:49.236Z,5.40
2018-12-25T23:47:20.124Z,5.40
2018-12-25T23:49:51.029Z,5.30
2018-12-25T23:52:22.137Z,5.40
2018-12-25T23:54:53.961Z,5.40
2018-12-25T23:57:24.872Z,5.30
2018-12-25T23:59:56.457Z,5.30
